Time;durP1;ratioP1;P1;durP2;ratioP2;P2;SDS_P1;SDS_P2;PMS_P1;PMS_P2;Temp;Humidity;BMP_temperature;BMP_pressure;BME280_temperature;BME280_humidity;BME280_pressure;Samples;Min_cycle;Max_cycle;Signal;HPM_P1;HPM_P2
2021/05/26 00:00:41;;;;;;;3.30;1.20;;;13.90;90.20;21.30;99920.00;;;;5035991;28;20225;-74
2021/05/26 00:03:07;;;;;;;3.50;1.30;;;13.90;90.20;21.10;99929.00;;;;5070142;28;20518;-74
2021/05/26 00:05:32;;;;;;;3.40;1.47;;;13.90;90.20;21.10;99927.00;;;;5052048;28;20637;-74
2021/05/26 00:07:58;;;;;;;3.47;1.67;;;13.90;90.20;21.30;99921.00;;;;5068765;28;20640;-74
2021/05/26 00:10:24;;;;;;;3.53;1.50;;;13.90;90.20;21.40;99945.00;;;;5052117;28;20209;-74
2021/05/26 00:12:50;;;;;;;3.40;1.27;;;13.90;90.20;21.20;99948.00;;;;5035667;28;20232;-74
2021/05/26 00:15:16;;;;;;;3.80;1.37;;;13.90;90.20;21.20;99939.00;;;;5069766;28;20490;-74
2021/05/26 00:17:42;;;;;;;3.10;1.07;;;13.90;90.10;21.10;99937.00;;;;5052216;28;20221;-75
2021/05/26 00:20:08;;;;;;;4.23;1.30;;;13.90;90.10;21.20;99931.00;;;;5051811;28;20490;-74
2021/05/26 00:22:34;;;;;;;3.03;1.17;;;13.90;90.10;21.30;99944.00;;;;5068897;28;20643;-75
2021/05/26 00:25:00;;;;;;;3.50;1.20;;;13.80;90.10;21.10;99934.00;;;;5051720;28;20550;-74
2021/05/26 00:27:25;;;;;;;4.03;1.47;;;13.80;90.00;21.10;99924.00;;;;5068680;28;20528;-75
2021/05/26 00:29:51;;;;;;;3.60;1.17;;;13.80;90.10;21.10;99921.00;;;;5051896;28;20181;-74
2021/05/26 00:32:17;;;;;;;3.40;1.20;;;13.80;90.10;21.30;99930.00;;;;5052142;28;20209;-74
2021/05/26 00:34:43;;;;;;;4.77;1.57;;;13.80;90.10;21.10;99921.00;;;;5068361;28;20189;-74
2021/05/26 00:37:08;;;;;;;3.70;1.40;;;13.80;90.00;21.20;99942.00;;;;5051892;28;20234;-74
2021/05/26 00:39:34;;;;;;;3.57;1.40;;;13.80;90.00;21.10;99934.00;;;;5051826;28;20216;-73
2021/05/26 00:42:00;;;;;;;3.20;1.10;;;13.80;90.10;21.20;99925.00;;;;5068454;28;20196;-74
2021/05/26 00:44:25;;;;;;;3.87;1.40;;;13.80;90.10;21.20;99889.00;;;;5051755;28;20250;-74
2021/05/26 00:46:51;;;;;;;3.57;1.43;;;13.80;90.00;21.30;99910.00;;;;5051322;28;20208;-73
2021/05/26 00:49:17;;;;;;;3.87;1.40;;;13.80;90.00;21.30;99907.00;;;;5068539;28;20200;-73
2021/05/26 00:51:43;;;;;;;3.63;1.50;;;13.80;90.00;21.30;99910.00;;;;5018189;28;20204;-74
2021/05/26 00:54:09;;;;;;;3.93;1.30;;;13.80;90.00;21.20;99900.00;;;;5052316;28;20474;-74
2021/05/26 00:56:36;;;;;;;3.30;1.30;;;13.80;90.10;21.30;99892.00;;;;5035284;28;20415;-74
2021/05/26 00:59:03;;;;;;;4.00;1.30;;;13.80;90.00;21.20;99889.00;;;;5035185;28;20181;-74
2021/05/26 01:01:28;;;;;;;5.10;1.53;;;13.80;90.00;21.30;99890.00;;;;5051725;28;20464;-74
2021/05/26 01:03:56;;;;;;;3.17;1.20;;;13.80;90.00;21.10;99881.00;;;;5051874;28;20505;-74
2021/05/26 01:06:22;;;;;;;3.60;1.30;;;13.80;90.00;21.20;99885.00;;;;5050918;28;20240;-74
2021/05/26 01:08:47;;;;;;;3.50;1.10;;;13.80;90.00;21.10;99884.00;;;;5035248;28;20398;-73
2021/05/26 01:11:13;;;;;;;3.40;1.30;;;13.80;90.00;21.20;99886.00;;;;5051297;28;20999;-73
2021/05/26 01:13:39;;;;;;;3.30;1.30;;;13.80;90.00;21.20;99883.00;;;;5068929;28;20216;-73
2021/05/26 01:16:04;;;;;;;3.20;1.10;;;13.80;90.00;21.30;99885.00;;;;5034113;28;20401;-73
2021/05/26 01:18:32;;;;;;;4.30;1.43;;;13.80;90.00;21.10;99884.00;;;;5018734;28;20207;-73
2021/05/26 01:21:00;;;;;;;3.20;0.90;;;13.80;90.00;21.30;99886.00;;;;5034546;28;20251;-74
2021/05/26 01:23:26;;;;;;;3.97;1.53;;;13.70;89.90;21.10;99883.00;;;;5034847;28;20432;-75
2021/05/26 01:25:54;;;;;;;3.93;1.10;;;13.80;90.00;21.20;99897.00;;;;5051063;28;20452;-74
2021/05/26 01:28:20;;;;;;;3.47;1.10;;;13.70;89.80;21.20;99901.00;;;;5051887;28;20435;-73
2021/05/26 01:30:46;;;;;;;3.20;1.20;;;13.70;89.80;21.20;99886.00;;;;5068980;28;20960;-73
2021/05/26 01:33:12;;;;;;;3.57;1.30;;;13.70;89.80;21.10;99901.00;;;;5018065;28;20486;-73
2021/05/26 01:35:40;;;;;;;3.43;1.30;;;13.70;89.80;21.30;99894.00;;;;5069704;28;20529;-73
2021/05/26 01:38:06;;;;;;;3.70;1.30;;;13.70;89.80;21.10;99892.00;;;;5071557;28;20850;-73
2021/05/26 01:40:32;;;;;;;3.30;1.20;;;13.70;89.80;21.10;99899.00;;;;5055142;28;20483;-73
2021/05/26 01:42:57;;;;;;;3.63;1.40;;;13.70;89.80;21.20;99898.00;;;;5072330;28;20647;-73
2021/05/26 01:45:23;;;;;;;3.77;1.30;;;13.70;89.80;21.10;99896.00;;;;5071677;28;20512;-73
2021/05/26 01:47:49;;;;;;;3.53;1.20;;;13.70;89.90;21.10;99904.00;;;;5071636;28;20224;-74
2021/05/26 01:50:22;;;;;;;4.40;1.40;;;13.70;89.80;21.20;99902.00;;;;5055026;28;20212;-73
2021/05/26 01:52:59;;;;;;;3.57;1.23;;;13.70;89.80;21.20;99897.00;;;;5056361;28;20510;-73
2021/05/26 01:55:25;;;;;;;3.50;1.20;;;13.70;89.80;21.00;99899.00;;;;5056054;28;20455;-73
2021/05/26 01:57:50;;;;;;;3.53;1.47;;;13.70;89.80;21.10;99907.00;;;;5038687;28;20482;-73
2021/05/26 02:00:18;;;;;;;3.30;1.30;;;13.70;89.70;21.10;99897.00;;;;5072603;28;20471;-73
2021/05/26 02:02:44;;;;;;;3.53;1.30;;;13.70;89.70;21.20;99889.00;;;;5070790;28;20254;-73
2021/05/26 02:05:10;;;;;;;3.33;1.20;;;13.70;89.80;21.20;99892.00;;;;5070942;28;20510;-73
2021/05/26 02:07:37;;;;;;;3.40;1.47;;;13.60;89.60;21.20;99884.00;;;;5054893;28;21064;-73
2021/05/26 02:10:09;;;;;;;3.50;1.30;;;13.60;89.60;21.10;99898.00;;;;5038191;28;20512;-73
2021/05/26 02:12:39;;;;;;;3.30;1.10;;;13.60;89.60;21.20;99892.00;;;;5054742;28;21067;-73
2021/05/26 02:15:07;;;;;;;4.00;1.63;;;13.70;89.80;21.10;99901.00;;;;5071210;28;20452;-73
2021/05/26 02:17:32;;;;;;;3.37;1.40;;;13.60;89.50;21.10;99902.00;;;;5070633;28;20937;-73
2021/05/26 02:19:58;;;;;;;3.60;1.50;;;13.60;89.60;21.10;99899.00;;;;5071013;28;20482;-73
2021/05/26 02:22:24;;;;;;;4.20;1.20;;;13.70;89.70;21.10;99897.00;;;;5054215;28;20181;-74
2021/05/26 02:24:50;;;;;;;3.50;1.30;;;13.60;89.60;21.00;99888.00;;;;5037986;28;20185;-74
2021/05/26 02:27:16;;;;;;;3.90;1.37;;;13.60;89.50;21.10;99903.00;;;;5054368;28;20245;-74
2021/05/26 02:29:41;;;;;;;3.80;1.60;;;13.60;89.50;21.00;99907.00;;;;5021213;28;20173;-74
2021/05/26 02:32:07;;;;;;;3.43;1.00;;;13.60;89.50;21.00;99911.00;;;;5053991;28;21095;-74
2021/05/26 02:34:33;;;;;;;3.43;1.30;;;13.60;89.50;21.10;99886.00;;;;5070938;28;20330;-74
2021/05/26 02:36:59;;;;;;;3.80;1.33;;;13.60;89.50;21.10;99889.00;;;;5053897;28;20942;-74
2021/05/26 02:39:25;;;;;;;3.47;1.23;;;13.60;89.40;21.10;99884.00;;;;5054363;28;20209;-74
2021/05/26 02:41:51;;;;;;;3.40;1.23;;;13.60;89.40;21.00;99894.00;;;;5020983;28;20518;-74
2021/05/26 02:44:17;;;;;;;3.40;1.30;;;13.60;89.50;21.00;99905.00;;;;5053551;28;20406;-74
2021/05/26 02:46:42;;;;;;;3.73;1.50;;;13.60;89.40;21.00;99890.00;;;;5070739;28;20204;-74
2021/05/26 02:49:08;;;;;;;3.70;1.50;;;13.60;89.40;21.00;99886.00;;;;5020348;28;20205;-74
2021/05/26 02:51:35;;;;;;;3.63;1.20;;;13.60;89.40;21.10;99885.00;;;;5070186;28;20201;-74
2021/05/26 02:54:01;;;;;;;3.47;1.30;;;13.60;89.40;21.10;99878.00;;;;5037508;28;20239;-74
2021/05/26 02:56:27;;;;;;;3.40;1.23;;;13.60;89.50;21.00;99894.00;;;;5036928;28;20459;-74
2021/05/26 02:58:53;;;;;;;3.33;1.27;;;13.60;89.40;21.10;99889.00;;;;5037261;28;20431;-74
2021/05/26 03:01:19;;;;;;;3.20;1.20;;;13.60;89.40;20.90;99893.00;;;;5070259;28;20820;-74
2021/05/26 03:03:44;;;;;;;4.10;1.37;;;13.60;89.40;21.10;99901.00;;;;5069833;28;20623;-74
2021/05/26 03:06:10;;;;;;;3.73;1.40;;;13.60;89.30;21.20;99902.00;;;;5053294;28;20229;-74
2021/05/26 03:08:36;;;;;;;3.30;1.17;;;13.60;89.30;20.90;99900.00;;;;5071381;28;20185;-74
2021/05/26 03:11:02;;;;;;;3.70;1.20;;;13.50;89.20;21.00;99909.00;;;;5053797;28;20208;-74
2021/05/26 03:13:28;;;;;;;3.00;1.00;;;13.50;89.30;21.00;99906.00;;;;5036305;28;20240;-74
2021/05/26 03:15:54;;;;;;;3.77;1.20;;;13.50;89.10;21.00;99894.00;;;;5036591;28;20498;-74
2021/05/26 03:18:20;;;;;;;3.97;1.50;;;13.50;89.30;21.00;99894.00;;;;5069696;28;20431;-74
2021/05/26 03:20:46;;;;;;;3.20;1.07;;;13.50;89.10;20.90;99877.00;;;;5052294;28;20251;-74
2021/05/26 03:23:13;;;;;;;3.80;1.50;;;13.50;89.20;21.00;99877.00;;;;5018742;28;20435;-74
2021/05/26 03:25:39;;;;;;;3.33;1.20;;;13.50;89.10;21.00;99886.00;;;;5053688;28;20451;-75
2021/05/26 03:28:04;;;;;;;3.63;1.50;;;13.50;89.10;21.00;99870.00;;;;5069461;28;20797;-74
2021/05/26 03:30:30;;;;;;;3.40;1.50;;;13.50;89.00;21.10;99886.00;;;;5069617;28;20456;-73
2021/05/26 03:32:57;;;;;;;3.20;1.40;;;13.50;89.10;21.10;99879.00;;;;5035645;28;21019;-73
2021/05/26 03:35:23;;;;;;;3.40;1.40;;;13.50;89.00;20.90;99885.00;;;;5019500;28;20208;-73
2021/05/26 03:37:48;;;;;;;3.20;1.20;;;13.50;89.00;21.10;99887.00;;;;5069521;28;20432;-73
2021/05/26 03:40:15;;;;;;;3.50;1.40;;;13.50;89.00;21.20;99878.00;;;;5035959;28;20205;-73
2021/05/26 03:42:41;;;;;;;3.93;1.50;;;13.50;88.90;21.20;99875.00;;;;5069635;28;20956;-73
2021/05/26 03:45:12;;;;;;;3.40;1.33;;;13.50;88.90;21.10;99877.00;;;;5036310;28;20542;-73
2021/05/26 03:47:38;;;;;;;5.20;1.90;;;13.50;88.90;21.10;99873.00;;;;5035483;28;20212;-74
2021/05/26 03:50:12;;;;;;;4.73;1.23;;;13.50;88.90;21.00;99872.00;;;;5069414;28;20939;-73
2021/05/26 03:52:45;;;;;;;3.13;1.10;;;13.50;89.00;21.10;99875.00;;;;5069300;28;20503;-73
2021/05/26 03:55:13;;;;;;;3.43;1.30;;;13.50;89.00;21.00;99885.00;;;;5052337;28;20497;-73
2021/05/26 03:57:39;;;;;;;3.43;1.50;;;13.50;88.90;21.00;99877.00;;;;5068993;28;20929;-74
2021/05/26 04:00:10;;;;;;;3.40;1.27;;;13.50;88.90;21.20;99882.00;;;;5068925;28;20450;-73
2021/05/26 04:02:36;;;;;;;3.50;1.20;;;13.50;89.00;21.30;99895.00;;;;5052300;28;20508;-76
2021/05/26 04:05:03;;;;;;;3.27;1.20;;;13.50;88.90;21.00;99882.00;;;;5069192;28;21130;-74
2021/05/26 04:07:29;;;;;;;3.43;1.37;;;13.50;88.90;21.00;99870.00;;;;5052876;28;20422;-73
2021/05/26 04:09:55;;;;;;;3.43;1.23;;;13.40;88.80;21.00;99877.00;;;;5068720;28;20467;-73
2021/05/26 04:12:24;;;;;;;3.47;1.73;;;13.50;88.90;20.80;99881.00;;;;5068758;28;20213;-73
2021/05/26 04:14:50;;;;;;;3.60;1.40;;;13.40;88.80;20.70;99889.00;;;;5036400;28;20686;-73
2021/05/26 04:17:15;;;;;;;3.40;1.40;;;13.40;88.80;20.90;99882.00;;;;5068493;28;20431;-73
2021/05/26 04:19:41;;;;;;;5.53;1.50;;;13.40;88.80;20.70;99869.00;;;;5052090;28;20185;-73
2021/05/26 04:22:07;;;;;;;3.80;1.50;;;13.40;88.80;20.80;99873.00;;;;5051992;28;20213;-73
2021/05/26 04:24:32;;;;;;;4.10;1.47;;;13.40;88.80;21.00;99863.00;;;;5035647;28;20544;-73
2021/05/26 04:26:58;;;;;;;3.87;1.60;;;13.40;88.80;21.00;99866.00;;;;5068637;28;20260;-74
2021/05/26 04:29:24;;;;;;;6.20;1.30;;;13.40;88.80;21.00;99869.00;;;;5051779;28;20189;-73
2021/05/26 04:31:50;;;;;;;3.73;1.77;;;13.40;88.80;20.90;99881.00;;;;5052059;28;20208;-74
2021/05/26 04:34:15;;;;;;;3.90;1.40;;;13.40;88.80;20.70;99871.00;;;;5070020;28;20184;-73
2021/05/26 04:36:41;;;;;;;3.57;1.33;;;13.40;88.80;20.90;99877.00;;;;5068297;28;20737;-73
2021/05/26 04:39:07;;;;;;;3.73;1.67;;;13.40;88.80;20.80;99870.00;;;;5051884;28;20181;-74
2021/05/26 04:41:33;;;;;;;3.80;1.60;;;13.40;88.90;21.00;99874.00;;;;5018867;28;20243;-74
2021/05/26 04:43:58;;;;;;;3.37;1.40;;;13.40;88.90;20.90;99871.00;;;;5069502;28;20227;-74
2021/05/26 04:46:24;;;;;;;3.43;1.60;;;13.40;88.90;20.80;99878.00;;;;5051816;28;20216;-73
2021/05/26 04:48:50;;;;;;;3.47;1.50;;;13.40;88.80;21.00;99877.00;;;;5035045;28;20178;-73
2021/05/26 04:51:16;;;;;;;3.73;1.40;;;13.40;88.80;20.80;99869.00;;;;5034731;28;20615;-73
2021/05/26 04:53:41;;;;;;;3.30;1.17;;;13.40;88.80;21.10;99882.00;;;;5051586;28;20869;-73
2021/05/26 04:56:07;;;;;;;3.20;1.40;;;13.40;88.80;20.80;99875.00;;;;5069925;28;20694;-73
2021/05/26 04:58:33;;;;;;;3.27;1.43;;;13.40;88.80;20.90;99888.00;;;;5069499;28;20247;-72
2021/05/26 05:00:59;;;;;;;3.70;1.50;;;13.40;88.80;20.90;99890.00;;;;5051627;28;20259;-73
2021/05/26 05:03:25;;;;;;;3.80;1.53;;;13.40;88.90;20.70;99890.00;;;;5018745;28;20196;-73
2021/05/26 05:05:51;;;;;;;3.77;1.20;;;13.40;88.90;20.80;99885.00;;;;5050663;28;20850;-73
2021/05/26 05:08:16;;;;;;;3.30;1.43;;;13.40;88.90;20.80;99883.00;;;;5069024;28;20181;-74
2021/05/26 05:10:42;;;;;;;3.90;1.53;;;13.40;88.90;20.90;99889.00;;;;5037037;28;20197;-73
2021/05/26 05:13:08;;;;;;;5.90;1.63;;;13.40;88.90;21.10;99878.00;;;;5055308;28;20208;-74
2021/05/26 05:15:34;;;;;;;4.00;1.60;;;13.40;88.90;21.00;99880.00;;;;5038785;28;20568;-73
2021/05/26 05:17:59;;;;;;;4.07;1.63;;;13.40;88.90;20.90;99887.00;;;;5073100;28;20973;-73
2021/05/26 05:20:25;;;;;;;3.57;1.53;;;13.40;88.90;20.70;99888.00;;;;5072020;28;20768;-73
2021/05/26 05:22:52;;;;;;;3.70;1.83;;;13.40;88.90;20.80;99877.00;;;;5055394;28;20185;-73
2021/05/26 05:25:17;;;;;;;3.40;1.40;;;13.40;88.90;20.80;99874.00;;;;5038785;28;20205;-73
2021/05/26 05:27:43;;;;;;;3.30;1.30;;;13.40;88.90;20.70;99884.00;;;;5073162;28;20796;-73
2021/05/26 05:30:10;;;;;;;4.23;1.60;;;13.40;88.90;20.70;99880.00;;;;5073107;28;20228;-73
2021/05/26 05:32:36;;;;;;;3.60;1.70;;;13.40;89.00;20.80;99875.00;;;;5037680;28;20486;-73
2021/05/26 05:35:02;;;;;;;3.90;1.60;;;13.40;88.90;20.80;99879.00;;;;5072551;28;20426;-73
2021/05/26 05:37:28;;;;;;;3.50;1.30;;;13.40;89.00;20.80;99899.00;;;;5038701;28;20223;-73
2021/05/26 05:39:54;;;;;;;4.10;1.57;;;13.40;89.00;20.70;99879.00;;;;5054772;28;20491;-73
2021/05/26 05:42:20;;;;;;;3.73;1.40;;;13.40;89.00;20.60;99883.00;;;;5071892;28;20174;-73
2021/05/26 05:44:46;;;;;;;3.40;1.47;;;13.40;89.00;20.60;99868.00;;;;5071285;28;20181;-73
2021/05/26 05:47:12;;;;;;;3.93;1.40;;;13.40;89.00;20.60;99875.00;;;;5038471;28;20549;-73
2021/05/26 05:49:38;;;;;;;4.20;1.70;;;13.40;89.00;20.50;99876.00;;;;5021711;28;20513;-73
2021/05/26 05:52:04;;;;;;;3.40;1.43;;;13.40;89.00;20.90;99882.00;;;;5071450;28;20455;-74
2021/05/26 05:54:30;;;;;;;3.40;1.30;;;13.40;89.00;20.80;99875.00;;;;5037927;28;20181;-74
2021/05/26 05:56:56;;;;;;;4.10;1.77;;;13.40;89.00;20.70;99859.00;;;;5071037;28;20947;-74
2021/05/26 05:59:21;;;;;;;3.30;1.17;;;13.40;89.00;20.70;99867.00;;;;5038424;28;20284;-73
2021/05/26 06:01:47;;;;;;;3.13;1.13;;;13.40;89.00;20.90;99871.00;;;;5021482;28;20201;-73
2021/05/26 06:04:13;;;;;;;3.37;1.50;;;13.40;89.10;21.00;99876.00;;;;5070618;28;20606;-74
2021/05/26 06:06:38;;;;;;;3.30;1.30;;;13.40;89.00;20.90;99865.00;;;;5071699;28;20652;-74
2021/05/26 06:09:05;;;;;;;4.03;1.57;;;13.40;89.00;21.00;99875.00;;;;5069876;28;20188;-74
2021/05/26 06:11:33;;;;;;;3.50;1.40;;;13.40;89.00;20.70;99870.00;;;;5036803;28;20197;-73
2021/05/26 06:14:06;;;;;;;4.07;1.60;;;13.40;89.00;20.90;99875.00;;;;5070157;28;20455;-74
2021/05/26 06:16:33;;;;;;;4.70;1.53;;;13.40;89.00;20.80;99875.00;;;;5053737;28;20455;-73
2021/05/26 06:18:59;;;;;;;3.30;1.50;;;13.40;89.10;20.80;99871.00;;;;5053130;28;20421;-73
2021/05/26 06:21:26;;;;;;;3.33;1.33;;;13.40;89.10;20.70;99857.00;;;;5069621;28;20955;-74
2021/05/26 06:23:52;;;;;;;3.20;1.40;;;13.30;89.00;20.90;99827.00;;;;5052703;28;20447;-74
2021/05/26 06:26:18;;;;;;;3.60;1.50;;;13.40;89.00;20.70;99860.00;;;;5069611;28;20784;-74
2021/05/26 06:28:43;;;;;;;3.70;1.60;;;13.40;89.00;20.80;99868.00;;;;5069558;28;20213;-74
2021/05/26 06:31:09;;;;;;;4.10;1.70;;;13.40;89.00;20.80;99846.00;;;;5053462;28;20633;-74
2021/05/26 06:33:35;;;;;;;5.73;1.37;;;13.40;89.10;20.80;99867.00;;;;5069371;28;20263;-74
2021/05/26 06:36:01;;;;;;;3.47;1.20;;;13.40;89.10;20.70;99862.00;;;;5069371;28;20205;-74
2021/05/26 06:38:27;;;;;;;3.90;1.40;;;13.40;89.10;20.80;99856.00;;;;5033854;28;20499;-75
2021/05/26 06:40:52;;;;;;;3.20;1.37;;;13.40;89.10;20.70;99861.00;;;;5049758;28;20319;-74
2021/05/26 06:43:18;;;;;;;3.80;1.30;;;13.40;89.10;20.70;99861.00;;;;5035106;28;20177;-74
2021/05/26 06:45:44;;;;;;;3.17;1.20;;;13.40;89.10;20.80;99843.00;;;;5068798;28;20201;-74
2021/05/26 06:48:10;;;;;;;3.23;1.43;;;13.40;89.10;20.80;99851.00;;;;5068177;28;20173;-74
2021/05/26 06:50:36;;;;;;;4.40;1.60;;;13.40;89.10;20.60;99860.00;;;;5051540;28;20682;-74
2021/05/26 06:53:02;;;;;;;3.50;1.40;;;13.40;89.10;20.80;99853.00;;;;5035458;28;21012;-74
2021/05/26 06:55:27;;;;;;;3.80;1.50;;;13.40;89.10;20.90;99835.00;;;;5068433;28;20938;-74
2021/05/26 06:57:53;;;;;;;4.03;1.37;;;13.40;89.10;20.90;99862.00;;;;5051233;28;20444;-74
2021/05/26 07:00:19;;;;;;;3.50;1.33;;;13.40;89.10;20.70;99848.00;;;;5069743;28;20246;-74
2021/05/26 07:02:45;;;;;;;3.50;1.40;;;13.40;89.10;20.90;99851.00;;;;5067740;28;20186;-73
2021/05/26 07:05:11;;;;;;;3.30;1.33;;;13.40;89.00;20.70;99863.00;;;;4916484;28;4352768;-74
2021/05/26 07:07:37;;;;;;;4.00;1.30;;;13.30;89.00;20.60;99852.00;;;;5052741;28;20661;-74
2021/05/26 07:10:04;;;;;;;3.50;1.23;;;13.40;89.10;20.70;99856.00;;;;5052452;28;20449;-74
2021/05/26 07:12:30;;;;;;;3.60;1.37;;;13.40;89.10;20.70;99853.00;;;;5035638;28;20208;-74
2021/05/26 07:14:56;;;;;;;3.63;1.50;;;13.40;89.10;20.70;99841.00;;;;5052485;28;20465;-75
2021/05/26 07:17:22;;;;;;;3.30;1.40;;;13.40;89.10;20.80;99847.00;;;;5036262;28;20449;-74
2021/05/26 07:19:48;;;;;;;3.13;1.20;;;13.40;89.10;20.70;99844.00;;;;5035222;28;20182;-73
2021/05/26 07:22:13;;;;;;;3.30;1.20;;;13.40;89.10;20.60;99809.00;;;;5070071;28;20213;-74
2021/05/26 07:24:39;;;;;;;3.80;1.30;;;13.40;89.10;20.70;99849.00;;;;5069828;28;20188;-73
2021/05/26 07:27:05;;;;;;;3.30;1.33;;;13.40;89.10;20.60;99859.00;;;;5051517;28;20651;-74
2021/05/26 07:29:31;;;;;;;3.90;1.67;;;13.40;89.10;20.80;99841.00;;;;5035721;28;20559;-73
2021/05/26 07:31:56;;;;;;;3.80;1.50;;;13.40;89.10;20.70;99850.00;;;;5070101;28;20455;-73
2021/05/26 07:34:22;;;;;;;4.07;1.53;;;13.40;89.20;20.80;99849.00;;;;5031350;28;20185;-73
2021/05/26 07:36:48;;;;;;;3.90;1.30;;;13.40;89.10;21.00;99843.00;;;;5032239;28;20201;-73
2021/05/26 07:39:14;;;;;;;3.33;1.13;;;13.40;89.10;20.80;99829.00;;;;5050431;28;20189;-73
2021/05/26 07:41:39;;;;;;;3.73;1.33;;;13.40;89.20;20.80;99847.00;;;;5016610;28;20206;-72
2021/05/26 07:44:05;;;;;;;4.13;1.40;;;13.40;89.20;20.70;99840.00;;;;5049731;28;20186;-73
2021/05/26 07:46:31;;;;;;;3.23;1.33;;;13.40;89.20;20.90;99834.00;;;;5032987;28;20214;-74
2021/05/26 07:48:57;;;;;;;3.53;1.30;;;13.40;89.20;20.80;99834.00;;;;5032903;28;20498;-74
2021/05/26 07:51:29;;;;;;;3.20;1.40;;;13.40;89.20;20.80;99832.00;;;;5049296;28;20288;-74
2021/05/26 07:53:55;;;;;;;4.07;1.40;;;13.40;89.30;20.80;99827.00;;;;5051283;28;20483;-73
2021/05/26 07:56:21;;;;;;;3.80;1.67;;;13.40;89.30;20.80;99823.00;;;;5068753;28;20445;-73
2021/05/26 07:58:47;;;;;;;3.30;1.20;;;13.40;89.30;20.80;99812.00;;;;5069190;28;20418;-73
2021/05/26 08:01:13;;;;;;;4.40;1.43;;;13.40;89.30;20.80;99819.00;;;;5051091;28;21253;-73
2021/05/26 08:03:38;;;;;;;3.30;1.40;;;13.40;89.30;20.70;99825.00;;;;5051994;28;20273;-73
2021/05/26 08:06:04;;;;;;;3.40;1.20;;;13.40;89.30;20.80;99813.00;;;;5068442;28;20232;-73
2021/05/26 08:08:30;;;;;;;3.30;1.20;;;13.40;89.30;20.80;99802.00;;;;5050764;28;20234;-73
2021/05/26 08:10:57;;;;;;;3.33;1.40;;;13.40;89.30;20.90;99819.00;;;;5035208;28;20434;-73
2021/05/26 08:13:23;;;;;;;3.70;1.10;;;13.40;89.30;20.90;99812.00;;;;5048312;28;20489;-73
2021/05/26 08:15:48;;;;;;;3.40;1.40;;;13.40;89.30;21.10;99817.00;;;;5047816;28;20492;-73
2021/05/26 08:18:19;;;;;;;3.47;1.20;;;13.40;89.30;21.10;99820.00;;;;5048407;28;20185;-73
2021/05/26 08:20:47;;;;;;;3.33;1.33;;;13.40;89.30;21.00;99826.00;;;;5047852;28;20244;-73
2021/05/26 08:23:14;;;;;;;3.30;1.43;;;13.40;89.30;21.00;99810.00;;;;5048840;28;20440;-72
2021/05/26 08:25:40;;;;;;;3.83;1.70;;;13.40;89.30;21.10;99819.00;;;;5048649;28;20492;-73
2021/05/26 08:28:05;;;;;;;3.70;1.70;;;13.40;89.30;21.10;99806.00;;;;5049676;28;20468;-73
2021/05/26 08:30:32;;;;;;;6.03;1.50;;;13.40;89.30;21.10;99789.00;;;;5030695;28;20202;-73
2021/05/26 08:32:58;;;;;;;3.40;1.20;;;13.40;89.40;21.20;99812.00;;;;5047848;28;20526;-73
2021/05/26 08:35:24;;;;;;;3.70;1.30;;;13.40;89.30;21.00;99807.00;;;;5047709;28;20460;-73
2021/05/26 08:37:49;;;;;;;3.53;1.40;;;13.40;89.30;21.30;99809.00;;;;5048925;28;20269;-74
2021/05/26 08:40:16;;;;;;;3.70;1.20;;;13.50;89.40;21.20;99817.00;;;;5047413;28;20228;-72
2021/05/26 08:42:43;;;;;;;3.37;1.43;;;13.40;89.30;21.20;99803.00;;;;5048316;28;20273;-72
2021/05/26 08:45:09;;;;;;;3.70;1.37;;;13.40;89.30;21.10;99804.00;;;;5047415;28;20459;-73
2021/05/26 08:47:36;;;;;;;3.97;1.50;;;13.50;89.40;21.00;99806.00;;;;5031510;28;20458;-72
2021/05/26 08:50:03;;;;;;;3.97;1.30;;;13.50;89.40;21.00;99803.00;;;;5067449;28;21129;-73
2021/05/26 08:52:29;;;;;;;3.30;1.27;;;13.50;89.40;21.10;99793.00;;;;5050760;28;21263;-74
2021/05/26 08:54:54;;;;;;;3.10;1.20;;;13.50;89.40;21.00;99794.00;;;;5067072;28;20447;-72
2021/05/26 08:57:20;;;;;;;4.40;1.13;;;13.50;89.40;21.10;99787.00;;;;5067843;28;20247;-72
2021/05/26 08:59:46;;;;;;;3.30;1.20;;;13.50;89.50;21.00;99784.00;;;;5051386;28;20184;-72
2021/05/26 09:02:12;;;;;;;4.20;1.10;;;13.50;89.40;21.20;99783.00;;;;5068544;28;20185;-72
2021/05/26 09:04:38;;;;;;;3.10;1.10;;;13.50;89.40;21.10;99780.00;;;;5051008;28;20220;-72
2021/05/26 09:07:18;;;;;;;3.20;1.17;;;13.50;89.40;21.20;99783.00;;;;5034968;28;20969;-72
2021/05/26 09:10:16;;;;;;;3.40;1.30;;;13.50;89.40;21.00;99778.00;;;;5052040;28;20439;-73
2021/05/26 09:12:43;;;;;;;3.47;1.37;;;13.50;89.40;21.10;99779.00;;;;5056491;28;20983;-72
2021/05/26 09:15:20;;;;;;;3.43;1.33;;;13.50;89.40;21.10;99775.00;;;;5068043;28;20511;-72
2021/05/26 09:17:57;;;;;;;3.30;1.30;;;13.50;89.40;21.00;99766.00;;;;5051635;28;20512;-71
2021/05/26 09:20:30;;;;;;;3.63;1.10;;;13.50;89.40;20.90;99772.00;;;;5052794;28;20529;-72
2021/05/26 09:23:20;;;;;;;3.40;1.10;;;13.50;89.40;21.10;99744.00;;;;5035716;28;20418;-71
2021/05/26 09:25:46;;;;;;;3.97;1.40;;;13.50;89.40;21.10;99756.00;;;;5053354;28;20480;-72
2021/05/26 09:28:36;;;;;;;3.30;1.20;;;13.50;89.40;21.20;99730.00;;;;5069397;28;20429;-73
2021/05/26 09:31:07;;;;;;;3.83;1.37;;;13.50;89.30;21.10;99735.00;;;;5035803;28;20479;-72
2021/05/26 09:33:41;;;;;;;3.50;1.53;;;13.50;89.30;21.20;99727.00;;;;5051393;28;20476;-71
2021/05/26 09:36:22;;;;;;;4.20;1.03;;;13.50;89.30;21.30;99737.00;;;;5035578;28;20458;-71
2021/05/26 09:39:03;;;;;;;3.63;1.57;;;13.50;89.40;21.10;99738.00;;;;5052324;28;20854;-71
2021/05/26 09:41:35;;;;;;;4.33;1.50;;;13.50;89.30;21.00;99726.00;;;;5053333;28;20443;-71
2021/05/26 09:44:09;;;;;;;3.67;1.40;;;13.50;89.30;21.30;99722.00;;;;5035463;28;20793;-72
2021/05/26 09:46:36;;;;;;;3.83;1.10;;;13.50;89.30;21.30;99729.00;;;;5035835;28;20807;-71
2021/05/26 09:49:28;;;;;;;3.60;1.40;;;13.50;89.40;21.30;99712.00;;;;5069137;28;20432;-72
2021/05/26 09:51:55;;;;;;;3.67;1.10;;;13.50;89.40;21.40;99708.00;;;;5049286;28;20524;-71
2021/05/26 09:54:25;;;;;;;3.20;1.10;;;13.50;89.30;21.30;99716.00;;;;5047394;28;20482;-73
2021/05/26 09:57:07;;;;;;;3.00;1.00;;;13.50;89.40;21.40;99702.00;;;;5052454;28;20453;-71
2021/05/26 09:59:34;;;;;;;5.00;1.43;;;13.50;89.30;21.50;99704.00;;;;5057245;28;20949;-71
2021/05/26 10:02:07;;;;;;;3.63;1.30;;;13.50;89.30;21.20;99688.00;;;;5017344;28;20419;-72
2021/05/26 10:04:32;;;;;;;3.20;1.20;;;13.60;89.50;21.50;99697.00;;;;5034035;28;20519;-72
2021/05/26 10:06:59;;;;;;;3.13;1.10;;;13.60;89.40;21.50;99698.00;;;;5050721;28;20510;-72
2021/05/26 10:09:25;;;;;;;3.00;1.20;;;13.60;89.40;21.40;99703.00;;;;5017137;28;20447;-71
2021/05/26 10:11:56;;;;;;;4.30;1.27;;;13.60;89.30;21.40;99688.00;;;;5018053;28;20456;-71
2021/05/26 10:14:23;;;;;;;3.30;1.10;;;13.60;89.30;21.30;99689.00;;;;5033090;28;20738;-71
2021/05/26 10:16:51;;;;;;;3.40;1.20;;;13.60;89.30;21.20;99674.00;;;;5071198;28;20437;-72
2021/05/26 10:19:17;;;;;;;3.00;0.93;;;13.60;89.30;21.40;99694.00;;;;5054555;28;20486;-71
2021/05/26 10:21:48;;;;;;;3.30;1.30;;;13.60;89.30;21.40;99686.00;;;;5036786;28;20526;-72
2021/05/26 10:24:21;;;;;;;3.43;1.27;;;13.60;89.30;21.40;99678.00;;;;5054064;28;20406;-73
2021/05/26 10:26:47;;;;;;;3.30;1.17;;;13.60;89.20;21.20;99676.00;;;;5038172;28;20583;-71
2021/05/26 10:29:42;;;;;;;3.97;1.23;;;13.60;89.30;21.50;99658.00;;;;5070157;28;20515;-72
2021/05/26 10:32:23;;;;;;;3.30;1.20;;;13.60;89.30;21.60;99658.00;;;;5054258;28;20998;-72
2021/05/26 10:34:52;;;;;;;3.70;1.30;;;13.60;89.20;21.40;99665.00;;;;5053477;28;20439;-71
2021/05/26 10:37:37;;;;;;;3.10;1.20;;;13.60;89.20;21.30;99655.00;;;;5071210;28;20829;-72
2021/05/26 10:40:23;;;;;;;4.40;1.30;;;13.60;89.10;21.50;99658.00;;;;5055536;28;20455;-71
2021/05/26 10:42:49;;;;;;;4.03;1.60;;;13.60;90.00;21.40;99653.00;;;;5069970;28;20497;-72
2021/05/26 10:45:19;;;;;;;4.60;1.60;;;13.60;89.10;21.40;99658.00;;;;5054183;28;20430;-72
2021/05/26 10:47:48;;;;;;;3.30;1.40;;;13.60;89.10;21.60;99646.00;;;;5054199;28;20414;-71
2021/05/26 10:50:26;;;;;;;3.10;1.03;;;13.60;89.10;21.60;99644.00;;;;5054051;28;20479;-72
2021/05/26 10:52:55;;;;;;;3.30;1.20;;;13.60;89.10;21.30;99647.00;;;;5038396;28;20524;-71
2021/05/26 10:55:43;;;;;;;4.13;1.37;;;13.60;89.10;21.40;99628.00;;;;5069885;28;20513;-72